This is the latest recevied weather packets stored in our database for station/object VE9LJW. If no packets are shown the sender has not sent any weather packets the latest 10 day(s).
| Time | Temp. | Humidity | Pressure | Rain* | Wind** | Luminosity | Snow |
|---|---|---|---|---|---|---|---|
| 1777839942 | 10° C | 97% | 997.5 hPa | 1.78 mm | - | 64 W/m² | - |
| 1777839639 | 9.44° C | 98% | 997.7 hPa | 1.78 mm | - | 71 W/m² | - |
| 1777839338 | 10° C | 99% | 997.7 hPa | 2.29 mm | - | 45 W/m² | - |
| 1777839035 | 10° C | 98% | 997.4 hPa | 2.29 mm | - | 56 W/m² | - |
| 1777838731 | 10° C | 99% | 997.8 hPa | 2.29 mm | - | 48 W/m² | - |
| 1777838427 | 10° C | 99% | 997.9 hPa | 1.78 mm | - | 60 W/m² | - |
| 1777838125 | 10° C | 99% | 998.1 hPa | 1.78 mm | - | 59 W/m² | - |
| 1777837821 | 10° C | 99% | 998 hPa | 1.78 mm | - | 60 W/m² | - |
| 1777837519 | 10° C | 99% | 998.1 hPa | 1.78 mm | - | 75 W/m² | - |
| 1777837218 | 10° C | 99% | 998.1 hPa | 1.78 mm | - | 70 W/m² | - |
| 1777836915 | 10° C | 99% | 998.4 hPa | 1.78 mm | - | 53 W/m² | - |
| 1777836610 | 10° C | 99% | 998.1 hPa | 1.78 mm | - | 65 W/m² | - |
| 1777836307 | 10° C | 99% | 998.6 hPa | 1.27 mm | - | 75 W/m² | - |
| 1777836002 | 10° C | 99% | 998.5 hPa | 1.27 mm | - | 73 W/m² | - |
| 1777835700 | 10° C | 99% | 998.8 hPa | 2.29 mm | - | 73 W/m² | - |
| 1777835396 | 10° C | 99% | 998.9 hPa | 2.29 mm | - | 70 W/m² | - |
| 1777835094 | 10° C | 99% | 999.1 hPa | 2.29 mm | - | 54 W/m² | - |
| 1777834791 | 10.56° C | 99% | 999.2 hPa | 2.29 mm | - | 61 W/m² | - |
| 1777834487 | 10.56° C | 99% | 999.2 hPa | 3.05 mm | - | 61 W/m² | - |
| 1777834186 | 10° C | 99% | 999.1 hPa | 3.56 mm | - | 55 W/m² | - |
| 1777833883 | 10.56° C | 99% | 999.3 hPa | 4.32 mm | - | 46 W/m² | - |
| 1777833579 | 10.56° C | 99% | 999.4 hPa | 6.1 mm | - | 35 W/m² | - |
| 1777833276 | 10.56° C | 99% | 999.6 hPa | 8.38 mm | - | 15 W/m² | - |
| 1777832973 | 10.56° C | 99% | 999.6 hPa | 6.6 mm | - | 40 W/m² | - |
| 1777832672 | 10.56° C | 99% | 999.5 hPa | 5.33 mm | - | 55 W/m² | - |
* Rain latest hour (hover to see other rain measurements)
** Current wind speed in m/s (hover to see current wind gust speed)